sensor_id;sensor_type;location;lat;lon;timestamp;P1;durP1;ratioP1;P2;durP2;ratioP2
52025;SDS011;38041;40.058;18.328;2022-12-07T00:01:13;26.47;;;4.63;;
52025;SDS011;38041;40.058;18.328;2022-12-07T00:03:42;22.47;;;3.50;;
52025;SDS011;38041;40.058;18.328;2022-12-07T00:06:11;12.43;;;2.70;;
52025;SDS011;38041;40.058;18.328;2022-12-07T00:08:39;22.67;;;3.47;;
52025;SDS011;38041;40.058;18.328;2022-12-07T00:11:12;11.73;;;2.27;;
52025;SDS011;38041;40.058;18.328;2022-12-07T00:13:40;21.80;;;3.87;;
52025;SDS011;38041;40.058;18.328;2022-12-07T00:16:12;14.93;;;2.70;;
52025;SDS011;38041;40.058;18.328;2022-12-07T00:18:40;12.73;;;2.23;;
52025;SDS011;38041;40.058;18.328;2022-12-07T00:23:39;17.57;;;3.23;;
52025;SDS011;38041;40.058;18.328;2022-12-07T00:26:08;18.73;;;3.63;;
52025;SDS011;38041;40.058;18.328;2022-12-07T00:28:36;22.03;;;4.43;;
52025;SDS011;38041;40.058;18.328;2022-12-07T00:31:05;25.67;;;4.30;;
52025;SDS011;38041;40.058;18.328;2022-12-07T00:33:33;14.00;;;3.90;;
52025;SDS011;38041;40.058;18.328;2022-12-07T00:36:02;15.10;;;3.30;;
52025;SDS011;38041;40.058;18.328;2022-12-07T00:38:31;18.53;;;2.53;;
52025;SDS011;38041;40.058;18.328;2022-12-07T00:41:00;17.73;;;3.93;;
52025;SDS011;38041;40.058;18.328;2022-12-07T00:43:28;13.37;;;3.47;;
52025;SDS011;38041;40.058;18.328;2022-12-07T00:45:56;10.30;;;2.13;;
52025;SDS011;38041;40.058;18.328;2022-12-07T00:48:24;22.17;;;3.37;;
52025;SDS011;38041;40.058;18.328;2022-12-07T00:50:52;13.83;;;1.90;;
52025;SDS011;38041;40.058;18.328;2022-12-07T00:53:20;22.70;;;3.33;;
52025;SDS011;38041;40.058;18.328;2022-12-07T00:55:48;12.77;;;1.80;;
52025;SDS011;38041;40.058;18.328;2022-12-07T00:58:16;15.67;;;1.73;;
52025;SDS011;38041;40.058;18.328;2022-12-07T01:00:43;21.80;;;3.40;;
52025;SDS011;38041;40.058;18.328;2022-12-07T01:03:12;16.37;;;2.37;;
52025;SDS011;38041;40.058;18.328;2022-12-07T01:05:48;13.63;;;1.77;;
52025;SDS011;38041;40.058;18.328;2022-12-07T01:08:15;14.57;;;2.83;;
52025;SDS011;38041;40.058;18.328;2022-12-07T01:10:43;13.40;;;1.67;;
52025;SDS011;38041;40.058;18.328;2022-12-07T01:13:11;17.90;;;1.93;;
52025;SDS011;38041;40.058;18.328;2022-12-07T01:15:42;17.03;;;1.73;;
52025;SDS011;38041;40.058;18.328;2022-12-07T01:18:10;16.33;;;1.83;;
52025;SDS011;38041;40.058;18.328;2022-12-07T01:20:38;20.63;;;2.50;;
52025;SDS011;38041;40.058;18.328;2022-12-07T01:23:06;22.57;;;2.13;;
52025;SDS011;38041;40.058;18.328;2022-12-07T01:25:34;14.87;;;2.00;;
52025;SDS011;38041;40.058;18.328;2022-12-07T01:28:02;8.87;;;1.40;;
52025;SDS011;38041;40.058;18.328;2022-12-07T01:30:29;16.77;;;1.30;;
52025;SDS011;38041;40.058;18.328;2022-12-07T01:32:57;26.87;;;2.07;;
52025;SDS011;38041;40.058;18.328;2022-12-07T01:35:25;11.30;;;1.50;;
52025;SDS011;38041;40.058;18.328;2022-12-07T01:37:52;12.73;;;1.93;;
52025;SDS011;38041;40.058;18.328;2022-12-07T01:40:20;12.90;;;1.43;;
52025;SDS011;38041;40.058;18.328;2022-12-07T01:42:48;15.77;;;1.93;;
52025;SDS011;38041;40.058;18.328;2022-12-07T01:47:53;16.50;;;1.40;;
52025;SDS011;38041;40.058;18.328;2022-12-07T01:50:23;19.37;;;2.77;;
52025;SDS011;38041;40.058;18.328;2022-12-07T01:52:52;9.37;;;1.53;;
52025;SDS011;38041;40.058;18.328;2022-12-07T01:55:21;18.87;;;2.47;;
52025;SDS011;38041;40.058;18.328;2022-12-07T01:57:50;7.70;;;1.90;;
52025;SDS011;38041;40.058;18.328;2022-12-07T02:00:19;13.37;;;1.57;;
52025;SDS011;38041;40.058;18.328;2022-12-07T02:02:48;13.77;;;1.63;;
52025;SDS011;38041;40.058;18.328;2022-12-07T02:05:17;10.90;;;1.23;;
52025;SDS011;38041;40.058;18.328;2022-12-07T02:07:46;18.60;;;1.80;;
52025;SDS011;38041;40.058;18.328;2022-12-07T02:10:19;16.73;;;2.20;;
52025;SDS011;38041;40.058;18.328;2022-12-07T02:12:55;17.73;;;1.77;;
52025;SDS011;38041;40.058;18.328;2022-12-07T02:15:26;11.40;;;1.67;;
52025;SDS011;38041;40.058;18.328;2022-12-07T02:17:59;14.33;;;1.20;;
52025;SDS011;38041;40.058;18.328;2022-12-07T02:30:40;10.87;;;1.40;;
52025;SDS011;38041;40.058;18.328;2022-12-07T02:33:17;11.23;;;1.97;;
52025;SDS011;38041;40.058;18.328;2022-12-07T02:35:51;13.03;;;1.00;;
52025;SDS011;38041;40.058;18.328;2022-12-07T02:40:50;11.83;;;1.60;;
52025;SDS011;38041;40.058;18.328;2022-12-07T02:43:20;26.47;;;1.60;;
52025;SDS011;38041;40.058;18.328;2022-12-07T02:45:51;12.60;;;1.33;;
52025;SDS011;38041;40.058;18.328;2022-12-07T02:48:19;18.57;;;1.00;;
52025;SDS011;38041;40.058;18.328;2022-12-07T02:50:48;12.17;;;1.17;;
52025;SDS011;38041;40.058;18.328;2022-12-07T02:53:29;8.93;;;1.30;;
52025;SDS011;38041;40.058;18.328;2022-12-07T02:55:57;19.57;;;1.47;;
52025;SDS011;38041;40.058;18.328;2022-12-07T02:58:39;14.57;;;1.43;;
52025;SDS011;38041;40.058;18.328;2022-12-07T03:01:17;13.93;;;1.80;;
52025;SDS011;38041;40.058;18.328;2022-12-07T03:03:52;14.77;;;1.67;;
52025;SDS011;38041;40.058;18.328;2022-12-07T03:06:27;13.40;;;1.40;;
52025;SDS011;38041;40.058;18.328;2022-12-07T03:11:50;11.53;;;2.00;;
52025;SDS011;38041;40.058;18.328;2022-12-07T03:14:23;14.57;;;2.50;;
52025;SDS011;38041;40.058;18.328;2022-12-07T03:16:53;14.60;;;1.57;;
52025;SDS011;38041;40.058;18.328;2022-12-07T03:19:25;16.20;;;2.50;;
52025;SDS011;38041;40.058;18.328;2022-12-07T03:21:55;11.73;;;1.67;;
52025;SDS011;38041;40.058;18.328;2022-12-07T03:24:27;13.60;;;2.40;;
52025;SDS011;38041;40.058;18.328;2022-12-07T03:26:59;24.23;;;3.23;;
52025;SDS011;38041;40.058;18.328;2022-12-07T03:29:41;15.70;;;1.77;;
52025;SDS011;38041;40.058;18.328;2022-12-07T03:32:23;7.90;;;1.93;;
52025;SDS011;38041;40.058;18.328;2022-12-07T03:34:56;13.53;;;0.93;;
52025;SDS011;38041;40.058;18.328;2022-12-07T03:37:32;14.57;;;1.90;;
52025;SDS011;38041;40.058;18.328;2022-12-07T03:40:03;11.83;;;2.33;;
52025;SDS011;38041;40.058;18.328;2022-12-07T03:42:34;11.23;;;1.37;;
52025;SDS011;38041;40.058;18.328;2022-12-07T03:45:02;13.33;;;1.77;;
52025;SDS011;38041;40.058;18.328;2022-12-07T03:47:32;13.33;;;3.03;;
52025;SDS011;38041;40.058;18.328;2022-12-07T03:52:47;17.10;;;6.23;;
52025;SDS011;38041;40.058;18.328;2022-12-07T03:55:23;24.17;;;8.17;;
52025;SDS011;38041;40.058;18.328;2022-12-07T03:57:54;17.70;;;7.27;;
52025;SDS011;38041;40.058;18.328;2022-12-07T04:00:24;20.97;;;6.23;;
52025;SDS011;38041;40.058;18.328;2022-12-07T04:02:52;19.10;;;5.20;;
52025;SDS011;38041;40.058;18.328;2022-12-07T04:05:20;16.23;;;4.37;;
52025;SDS011;38041;40.058;18.328;2022-12-07T04:07:48;12.90;;;3.63;;
52025;SDS011;38041;40.058;18.328;2022-12-07T04:10:16;19.47;;;3.23;;
52025;SDS011;38041;40.058;18.328;2022-12-07T04:12:43;13.27;;;3.43;;
52025;SDS011;38041;40.058;18.328;2022-12-07T04:15:11;16.00;;;3.60;;
52025;SDS011;38041;40.058;18.328;2022-12-07T04:17:39;22.23;;;2.57;;
52025;SDS011;38041;40.058;18.328;2022-12-07T04:20:07;15.90;;;1.83;;
52025;SDS011;38041;40.058;18.328;2022-12-07T04:22:34;15.00;;;2.47;;
52025;SDS011;38041;40.058;18.328;2022-12-07T04:25:02;11.27;;;2.27;;
52025;SDS011;38041;40.058;18.328;2022-12-07T04:27:30;16.63;;;2.70;;
52025;SDS011;38041;40.058;18.328;2022-12-07T04:29:58;11.73;;;1.73;;
52025;SDS011;38041;40.058;18.328;2022-12-07T04:32:26;8.60;;;1.70;;
52025;SDS011;38041;40.058;18.328;2022-12-07T04:34:54;22.37;;;2.37;;
52025;SDS011;38041;40.058;18.328;2022-12-07T04:37:22;13.03;;;1.80;;
52025;SDS011;38041;40.058;18.328;2022-12-07T04:39:50;18.00;;;3.53;;
52025;SDS011;38041;40.058;18.328;2022-12-07T04:42:18;14.30;;;3.20;;
52025;SDS011;38041;40.058;18.328;2022-12-07T04:44:45;18.57;;;4.20;;
52025;SDS011;38041;40.058;18.328;2022-12-07T04:47:13;17.30;;;3.93;;
52025;SDS011;38041;40.058;18.328;2022-12-07T04:49:41;13.57;;;2.53;;
52025;SDS011;38041;40.058;18.328;2022-12-07T04:52:09;16.63;;;4.07;;
52025;SDS011;38041;40.058;18.328;2022-12-07T04:54:36;16.50;;;2.20;;
52025;SDS011;38041;40.058;18.328;2022-12-07T04:57:04;17.83;;;2.07;;
52025;SDS011;38041;40.058;18.328;2022-12-07T04:59:32;14.80;;;0.87;;
52025;SDS011;38041;40.058;18.328;2022-12-07T05:02:00;11.10;;;1.20;;
52025;SDS011;38041;40.058;18.328;2022-12-07T05:04:27;16.90;;;1.40;;
52025;SDS011;38041;40.058;18.328;2022-12-07T05:06:55;18.87;;;1.80;;
52025;SDS011;38041;40.058;18.328;2022-12-07T05:09:23;13.67;;;1.23;;
52025;SDS011;38041;40.058;18.328;2022-12-07T05:11:51;11.10;;;1.10;;
52025;SDS011;38041;40.058;18.328;2022-12-07T05:14:19;15.57;;;2.00;;
52025;SDS011;38041;40.058;18.328;2022-12-07T05:16:48;13.77;;;1.27;;
52025;SDS011;38041;40.058;18.328;2022-12-07T05:19:16;14.70;;;2.17;;
52025;SDS011;38041;40.058;18.328;2022-12-07T05:21:45;20.97;;;2.87;;
52025;SDS011;38041;40.058;18.328;2022-12-07T05:24:13;12.50;;;1.20;;
52025;SDS011;38041;40.058;18.328;2022-12-07T05:26:41;10.63;;;1.20;;
52025;SDS011;38041;40.058;18.328;2022-12-07T05:29:13;13.83;;;1.63;;
52025;SDS011;38041;40.058;18.328;2022-12-07T05:31:41;13.17;;;1.63;;
52025;SDS011;38041;40.058;18.328;2022-12-07T05:34:09;13.20;;;1.50;;
52025;SDS011;38041;40.058;18.328;2022-12-07T05:36:37;7.50;;;1.37;;
52025;SDS011;38041;40.058;18.328;2022-12-07T05:39:05;8.47;;;2.03;;
52025;SDS011;38041;40.058;18.328;2022-12-07T05:41:33;12.30;;;2.60;;
52025;SDS011;38041;40.058;18.328;2022-12-07T05:44:20;15.30;;;1.83;;
52025;SDS011;38041;40.058;18.328;2022-12-07T05:46:47;14.43;;;1.53;;
52025;SDS011;38041;40.058;18.328;2022-12-07T05:49:15;19.33;;;2.93;;
52025;SDS011;38041;40.058;18.328;2022-12-07T05:51:43;13.83;;;2.80;;
52025;SDS011;38041;40.058;18.328;2022-12-07T05:54:10;13.50;;;1.77;;
52025;SDS011;38041;40.058;18.328;2022-12-07T05:56:38;27.53;;;7.50;;
52025;SDS011;38041;40.058;18.328;2022-12-07T05:59:07;50.40;;;22.90;;
52025;SDS011;38041;40.058;18.328;2022-12-07T06:04:29;56.00;;;30.30;;
52025;SDS011;38041;40.058;18.328;2022-12-07T06:06:57;23.80;;;9.13;;
52025;SDS011;38041;40.058;18.328;2022-12-07T06:09:26;12.77;;;2.73;;
52025;SDS011;38041;40.058;18.328;2022-12-07T06:11:54;12.33;;;3.60;;
52025;SDS011;38041;40.058;18.328;2022-12-07T06:14:41;19.67;;;5.00;;
52025;SDS011;38041;40.058;18.328;2022-12-07T06:17:09;18.13;;;5.40;;
52025;SDS011;38041;40.058;18.328;2022-12-07T06:19:37;30.07;;;9.97;;
52025;SDS011;38041;40.058;18.328;2022-12-07T06:22:05;16.93;;;6.87;;
52025;SDS011;38041;40.058;18.328;2022-12-07T06:24:34;18.33;;;7.47;;
52025;SDS011;38041;40.058;18.328;2022-12-07T06:27:02;20.43;;;6.70;;
52025;SDS011;38041;40.058;18.328;2022-12-07T06:29:30;15.53;;;3.43;;
52025;SDS011;38041;40.058;18.328;2022-12-07T06:31:58;11.23;;;3.13;;
52025;SDS011;38041;40.058;18.328;2022-12-07T06:34:26;14.53;;;2.57;;
52025;SDS011;38041;40.058;18.328;2022-12-07T06:36:54;16.00;;;2.83;;
52025;SDS011;38041;40.058;18.328;2022-12-07T06:39:23;19.07;;;4.10;;
52025;SDS011;38041;40.058;18.328;2022-12-07T06:41:51;14.33;;;2.90;;
52025;SDS011;38041;40.058;18.328;2022-12-07T06:44:21;17.20;;;4.00;;
52025;SDS011;38041;40.058;18.328;2022-12-07T06:46:49;12.07;;;2.27;;
52025;SDS011;38041;40.058;18.328;2022-12-07T06:49:17;12.77;;;3.10;;
52025;SDS011;38041;40.058;18.328;2022-12-07T06:51:45;21.97;;;3.20;;
52025;SDS011;38041;40.058;18.328;2022-12-07T06:54:13;26.37;;;5.57;;
52025;SDS011;38041;40.058;18.328;2022-12-07T06:56:41;21.87;;;2.90;;
52025;SDS011;38041;40.058;18.328;2022-12-07T06:59:10;20.10;;;3.97;;
52025;SDS011;38041;40.058;18.328;2022-12-07T07:01:37;20.37;;;4.80;;
52025;SDS011;38041;40.058;18.328;2022-12-07T07:04:05;14.90;;;3.63;;
52025;SDS011;38041;40.058;18.328;2022-12-07T07:06:33;20.53;;;5.13;;
52025;SDS011;38041;40.058;18.328;2022-12-07T07:09:01;22.47;;;7.90;;
52025;SDS011;38041;40.058;18.328;2022-12-07T07:11:29;24.20;;;7.27;;
52025;SDS011;38041;40.058;18.328;2022-12-07T07:13:56;19.07;;;6.03;;
52025;SDS011;38041;40.058;18.328;2022-12-07T07:16:29;21.97;;;5.47;;
52025;SDS011;38041;40.058;18.328;2022-12-07T07:18:57;16.33;;;4.90;;
52025;SDS011;38041;40.058;18.328;2022-12-07T07:21:25;8.70;;;5.13;;
52025;SDS011;38041;40.058;18.328;2022-12-07T07:23:53;23.13;;;8.43;;
52025;SDS011;38041;40.058;18.328;2022-12-07T07:26:20;17.70;;;4.93;;
52025;SDS011;38041;40.058;18.328;2022-12-07T07:28:49;11.50;;;3.43;;
52025;SDS011;38041;40.058;18.328;2022-12-07T07:31:16;16.27;;;1.97;;
52025;SDS011;38041;40.058;18.328;2022-12-07T07:33:45;17.17;;;3.47;;
52025;SDS011;38041;40.058;18.328;2022-12-07T07:36:13;15.03;;;3.07;;
52025;SDS011;38041;40.058;18.328;2022-12-07T07:38:41;17.17;;;5.57;;
52025;SDS011;38041;40.058;18.328;2022-12-07T07:41:09;13.97;;;3.47;;
52025;SDS011;38041;40.058;18.328;2022-12-07T07:43:36;16.77;;;4.40;;
52025;SDS011;38041;40.058;18.328;2022-12-07T07:46:04;18.00;;;4.60;;
52025;SDS011;38041;40.058;18.328;2022-12-07T07:48:32;20.70;;;5.33;;
52025;SDS011;38041;40.058;18.328;2022-12-07T07:51:00;23.40;;;4.77;;
52025;SDS011;38041;40.058;18.328;2022-12-07T07:53:27;22.93;;;4.20;;
52025;SDS011;38041;40.058;18.328;2022-12-07T07:55:55;22.10;;;6.93;;
52025;SDS011;38041;40.058;18.328;2022-12-07T07:58:23;21.40;;;10.10;;
52025;SDS011;38041;40.058;18.328;2022-12-07T08:00:51;14.43;;;4.93;;
52025;SDS011;38041;40.058;18.328;2022-12-07T08:03:19;25.57;;;13.40;;
52025;SDS011;38041;40.058;18.328;2022-12-07T08:05:47;35.47;;;19.33;;
52025;SDS011;38041;40.058;18.328;2022-12-07T08:08:15;39.90;;;16.43;;
52025;SDS011;38041;40.058;18.328;2022-12-07T08:10:43;63.20;;;38.80;;
52025;SDS011;38041;40.058;18.328;2022-12-07T08:13:10;130.07;;;79.60;;
52025;SDS011;38041;40.058;18.328;2022-12-07T08:15:41;97.10;;;55.93;;
52025;SDS011;38041;40.058;18.328;2022-12-07T08:18:09;29.03;;;11.93;;
52025;SDS011;38041;40.058;18.328;2022-12-07T08:20:37;83.53;;;51.53;;
52025;SDS011;38041;40.058;18.328;2022-12-07T08:23:06;55.27;;;32.77;;
52025;SDS011;38041;40.058;18.328;2022-12-07T08:25:35;29.10;;;10.63;;
52025;SDS011;38041;40.058;18.328;2022-12-07T08:28:02;20.53;;;8.00;;
52025;SDS011;38041;40.058;18.328;2022-12-07T08:30:31;12.40;;;1.07;;
52025;SDS011;38041;40.058;18.328;2022-12-07T08:32:59;18.80;;;5.70;;
52025;SDS011;38041;40.058;18.328;2022-12-07T08:35:27;12.60;;;3.13;;
52025;SDS011;38041;40.058;18.328;2022-12-07T08:37:55;22.83;;;5.47;;
52025;SDS011;38041;40.058;18.328;2022-12-07T08:40:24;15.23;;;4.97;;
52025;SDS011;38041;40.058;18.328;2022-12-07T08:42:52;17.10;;;4.00;;
52025;SDS011;38041;40.058;18.328;2022-12-07T08:45:20;13.27;;;3.22;;
52025;SDS011;38041;40.058;18.328;2022-12-07T08:47:54;26.65;;;5.82;;
52025;SDS011;38041;40.058;18.328;2022-12-07T08:50:23;20.15;;;3.75;;
52025;SDS011;38041;40.058;18.328;2022-12-07T08:52:52;13.90;;;3.03;;
52025;SDS011;38041;40.058;18.328;2022-12-07T08:55:21;23.38;;;3.55;;
52025;SDS011;38041;40.058;18.328;2022-12-07T08:57:49;11.20;;;2.08;;
52025;SDS011;38041;40.058;18.328;2022-12-07T09:00:17;7.43;;;0.80;;
52025;SDS011;38041;40.058;18.328;2022-12-07T09:02:45;13.82;;;0.95;;
52025;SDS011;38041;40.058;18.328;2022-12-07T09:05:13;10.30;;;1.15;;
52025;SDS011;38041;40.058;18.328;2022-12-07T09:07:44;20.80;;;5.57;;
52025;SDS011;38041;40.058;18.328;2022-12-07T09:10:13;17.10;;;3.03;;
52025;SDS011;38041;40.058;18.328;2022-12-07T09:12:40;28.38;;;7.85;;
52025;SDS011;38041;40.058;18.328;2022-12-07T09:15:08;18.50;;;4.80;;
52025;SDS011;38041;40.058;18.328;2022-12-07T09:17:36;19.55;;;3.00;;
52025;SDS011;38041;40.058;18.328;2022-12-07T09:20:04;17.33;;;4.05;;
52025;SDS011;38041;40.058;18.328;2022-12-07T09:22:33;14.10;;;3.05;;
52025;SDS011;38041;40.058;18.328;2022-12-07T09:25:01;16.10;;;2.90;;
52025;SDS011;38041;40.058;18.328;2022-12-07T09:27:29;15.07;;;2.38;;
52025;SDS011;38041;40.058;18.328;2022-12-07T09:29:57;12.57;;;1.00;;
52025;SDS011;38041;40.058;18.328;2022-12-07T09:32:25;16.23;;;1.90;;
52025;SDS011;38041;40.058;18.328;2022-12-07T09:34:52;9.93;;;0.90;;
52025;SDS011;38041;40.058;18.328;2022-12-07T09:37:20;19.85;;;5.20;;
52025;SDS011;38041;40.058;18.328;2022-12-07T09:39:48;19.48;;;2.28;;
52025;SDS011;38041;40.058;18.328;2022-12-07T09:42:27;15.93;;;1.23;;
52025;SDS011;38041;40.058;18.328;2022-12-07T09:44:56;13.13;;;0.77;;
52025;SDS011;38041;40.058;18.328;2022-12-07T09:47:24;6.33;;;0.60;;
52025;SDS011;38041;40.058;18.328;2022-12-07T09:49:53;7.23;;;1.23;;
52025;SDS011;38041;40.058;18.328;2022-12-07T09:52:25;13.35;;;0.90;;
52025;SDS011;38041;40.058;18.328;2022-12-07T09:54:54;15.48;;;1.35;;
52025;SDS011;38041;40.058;18.328;2022-12-07T09:57:27;11.53;;;1.07;;
52025;SDS011;38041;40.058;18.328;2022-12-07T09:59:57;12.03;;;1.40;;
52025;SDS011;38041;40.058;18.328;2022-12-07T10:02:34;9.70;;;1.33;;
52025;SDS011;38041;40.058;18.328;2022-12-07T10:05:06;7.60;;;0.80;;
52025;SDS011;38041;40.058;18.328;2022-12-07T10:07:35;11.00;;;1.10;;
52025;SDS011;38041;40.058;18.328;2022-12-07T10:10:04;13.00;;;1.00;;
52025;SDS011;38041;40.058;18.328;2022-12-07T10:12:40;13.33;;;1.80;;
52025;SDS011;38041;40.058;18.328;2022-12-07T10:15:19;9.83;;;2.87;;
52025;SDS011;38041;40.058;18.328;2022-12-07T10:17:50;51.33;;;33.73;;
52025;SDS011;38041;40.058;18.328;2022-12-07T10:20:23;42.37;;;26.77;;
52025;SDS011;38041;40.058;18.328;2022-12-07T10:25:23;22.90;;;9.47;;
52025;SDS011;38041;40.058;18.328;2022-12-07T10:28:03;9.33;;;1.90;;
52025;SDS011;38041;40.058;18.328;2022-12-07T10:30:46;23.03;;;10.83;;
52025;SDS011;38041;40.058;18.328;2022-12-07T10:36:19;9.40;;;4.23;;
52025;SDS011;38041;40.058;18.328;2022-12-07T10:38:48;13.43;;;4.73;;
52025;SDS011;38041;40.058;18.328;2022-12-07T10:41:16;26.83;;;10.63;;
52025;SDS011;38041;40.058;18.328;2022-12-07T10:43:54;8.83;;;1.60;;
52025;SDS011;38041;40.058;18.328;2022-12-07T10:49:03;19.27;;;8.33;;
52025;SDS011;38041;40.058;18.328;2022-12-07T11:02:01;36.70;;;18.83;;
52025;SDS011;38041;40.058;18.328;2022-12-07T11:04:47;68.85;;;39.72;;
52025;SDS011;38041;40.058;18.328;2022-12-07T11:23:45;87.25;;;53.08;;
52025;SDS011;38041;40.058;18.328;2022-12-07T11:26:24;159.60;;;105.93;;
52025;SDS011;38041;40.058;18.328;2022-12-07T11:36:54;26.05;;;11.98;;
52025;SDS011;38041;40.058;18.328;2022-12-07T11:39:36;28.77;;;8.00;;
52025;SDS011;38041;40.058;18.328;2022-12-07T11:42:09;87.13;;;58.60;;
52025;SDS011;38041;40.058;18.328;2022-12-07T11:44:53;61.00;;;27.65;;
52025;SDS011;38041;40.058;18.328;2022-12-07T11:47:25;74.53;;;47.35;;
52025;SDS011;38041;40.058;18.328;2022-12-07T11:50:03;38.15;;;13.38;;
52025;SDS011;38041;40.058;18.328;2022-12-07T11:52:51;63.25;;;37.67;;
52025;SDS011;38041;40.058;18.328;2022-12-07T11:58:18;53.50;;;32.38;;
52025;SDS011;38041;40.058;18.328;2022-12-07T12:00:51;90.27;;;39.33;;
52025;SDS011;38041;40.058;18.328;2022-12-07T12:03:25;16.17;;;5.63;;
52025;SDS011;38041;40.058;18.328;2022-12-07T12:05:57;19.30;;;3.65;;
52025;SDS011;38041;40.058;18.328;2022-12-07T12:08:29;52.17;;;17.05;;
52025;SDS011;38041;40.058;18.328;2022-12-07T12:19:40;21.83;;;4.93;;
52025;SDS011;38041;40.058;18.328;2022-12-07T12:22:16;22.27;;;3.35;;
52025;SDS011;38041;40.058;18.328;2022-12-07T12:24:46;17.63;;;3.55;;
52025;SDS011;38041;40.058;18.328;2022-12-07T12:30:35;10.88;;;1.73;;
52025;SDS011;38041;40.058;18.328;2022-12-07T12:33:24;14.07;;;1.65;;
52025;SDS011;38041;40.058;18.328;2022-12-07T12:44:03;15.63;;;3.25;;
52025;SDS011;38041;40.058;18.328;2022-12-07T12:54:26;18.52;;;7.28;;
52025;SDS011;38041;40.058;18.328;2022-12-07T13:10:20;26.40;;;14.77;;
52025;SDS011;38041;40.058;18.328;2022-12-07T13:15:35;19.58;;;6.28;;
52025;SDS011;38041;40.058;18.328;2022-12-07T13:23:08;12.77;;;2.65;;
52025;SDS011;38041;40.058;18.328;2022-12-07T13:25:38;14.85;;;2.08;;
52025;SDS011;38041;40.058;18.328;2022-12-07T13:28:18;13.43;;;2.53;;
52025;SDS011;38041;40.058;18.328;2022-12-07T13:33:27;14.32;;;2.00;;
52025;SDS011;38041;40.058;18.328;2022-12-07T13:35:56;11.82;;;2.25;;
52025;SDS011;38041;40.058;18.328;2022-12-07T13:38:33;12.65;;;2.63;;
52025;SDS011;38041;40.058;18.328;2022-12-07T13:43:44;16.13;;;1.17;;
52025;SDS011;38041;40.058;18.328;2022-12-07T13:46:12;12.43;;;1.20;;
52025;SDS011;38041;40.058;18.328;2022-12-07T13:48:47;9.97;;;1.47;;
52025;SDS011;38041;40.058;18.328;2022-12-07T13:51:19;12.27;;;2.15;;
52025;SDS011;38041;40.058;18.328;2022-12-07T13:53:52;19.17;;;6.53;;
52025;SDS011;38041;40.058;18.328;2022-12-07T13:56:21;16.77;;;4.03;;
52025;SDS011;38041;40.058;18.328;2022-12-07T13:58:49;9.43;;;2.00;;
52025;SDS011;38041;40.058;18.328;2022-12-07T14:01:16;10.27;;;1.98;;
52025;SDS011;38041;40.058;18.328;2022-12-07T14:03:44;6.80;;;1.00;;
52025;SDS011;38041;40.058;18.328;2022-12-07T14:06:14;12.40;;;2.13;;
52025;SDS011;38041;40.058;18.328;2022-12-07T14:08:42;6.80;;;1.15;;
52025;SDS011;38041;40.058;18.328;2022-12-07T14:11:13;6.28;;;1.58;;
52025;SDS011;38041;40.058;18.328;2022-12-07T14:13:44;10.38;;;2.47;;
52025;SDS011;38041;40.058;18.328;2022-12-07T14:16:26;17.08;;;5.43;;
52025;SDS011;38041;40.058;18.328;2022-12-07T14:18:58;8.02;;;3.13;;
52025;SDS011;38041;40.058;18.328;2022-12-07T14:21:27;11.10;;;2.55;;
52025;SDS011;38041;40.058;18.328;2022-12-07T14:24:29;7.38;;;1.92;;
52025;SDS011;38041;40.058;18.328;2022-12-07T14:26:50;15.10;;;5.13;;
52025;SDS011;38041;40.058;18.328;2022-12-07T14:31:48;20.92;;;8.70;;
52025;SDS011;38041;40.058;18.328;2022-12-07T14:34:16;15.38;;;5.05;;
52025;SDS011;38041;40.058;18.328;2022-12-07T14:36:43;13.20;;;2.10;;
52025;SDS011;38041;40.058;18.328;2022-12-07T14:39:11;10.35;;;2.25;;
52025;SDS011;38041;40.058;18.328;2022-12-07T14:41:39;23.00;;;8.32;;
52025;SDS011;38041;40.058;18.328;2022-12-07T14:44:20;10.68;;;3.53;;
52025;SDS011;38041;40.058;18.328;2022-12-07T14:46:50;15.13;;;3.55;;
52025;SDS011;38041;40.058;18.328;2022-12-07T14:49:37;16.73;;;5.25;;
52025;SDS011;38041;40.058;18.328;2022-12-07T14:52:06;13.98;;;4.75;;
52025;SDS011;38041;40.058;18.328;2022-12-07T14:54:58;13.80;;;4.38;;
52025;SDS011;38041;40.058;18.328;2022-12-07T14:57:26;21.40;;;5.07;;
52025;SDS011;38041;40.058;18.328;2022-12-07T14:59:54;25.33;;;5.20;;
52025;SDS011;38041;40.058;18.328;2022-12-07T15:02:21;25.65;;;4.88;;
52025;SDS011;38041;40.058;18.328;2022-12-07T15:04:49;22.85;;;9.25;;
52025;SDS011;38041;40.058;18.328;2022-12-07T15:07:20;25.75;;;9.70;;
52025;SDS011;38041;40.058;18.328;2022-12-07T15:09:49;88.95;;;54.15;;
52025;SDS011;38041;40.058;18.328;2022-12-07T15:12:16;57.63;;;27.95;;
52025;SDS011;38041;40.058;18.328;2022-12-07T15:14:45;31.80;;;12.55;;
52025;SDS011;38041;40.058;18.328;2022-12-07T15:17:13;26.63;;;8.23;;
52025;SDS011;38041;40.058;18.328;2022-12-07T15:22:16;19.13;;;6.23;;
52025;SDS011;38041;40.058;18.328;2022-12-07T15:24:44;20.67;;;8.63;;
52025;SDS011;38041;40.058;18.328;2022-12-07T15:27:12;20.20;;;8.83;;
52025;SDS011;38041;40.058;18.328;2022-12-07T15:29:39;98.17;;;59.57;;
52025;SDS011;38041;40.058;18.328;2022-12-07T15:32:08;46.90;;;21.90;;
52025;SDS011;38041;40.058;18.328;2022-12-07T15:34:36;40.13;;;19.87;;
52025;SDS011;38041;40.058;18.328;2022-12-07T15:37:06;32.37;;;16.37;;
52025;SDS011;38041;40.058;18.328;2022-12-07T15:39:34;32.50;;;15.60;;
52025;SDS011;38041;40.058;18.328;2022-12-07T15:42:02;31.93;;;14.00;;
52025;SDS011;38041;40.058;18.328;2022-12-07T15:44:30;34.10;;;12.63;;
52025;SDS011;38041;40.058;18.328;2022-12-07T15:47:16;27.67;;;10.93;;
52025;SDS011;38041;40.058;18.328;2022-12-07T15:49:43;24.17;;;12.00;;
52025;SDS011;38041;40.058;18.328;2022-12-07T15:52:11;28.30;;;11.97;;
52025;SDS011;38041;40.058;18.328;2022-12-07T15:54:39;26.07;;;12.57;;
52025;SDS011;38041;40.058;18.328;2022-12-07T15:57:07;31.57;;;14.57;;
52025;SDS011;38041;40.058;18.328;2022-12-07T15:59:35;30.53;;;16.77;;
52025;SDS011;38041;40.058;18.328;2022-12-07T16:02:02;33.60;;;18.63;;
52025;SDS011;38041;40.058;18.328;2022-12-07T16:04:30;40.03;;;16.13;;
52025;SDS011;38041;40.058;18.328;2022-12-07T16:06:58;32.17;;;13.33;;
52025;SDS011;38041;40.058;18.328;2022-12-07T16:09:26;39.57;;;14.97;;
52025;SDS011;38041;40.058;18.328;2022-12-07T16:11:53;28.63;;;14.10;;
52025;SDS011;38041;40.058;18.328;2022-12-07T16:14:21;34.77;;;15.73;;
52025;SDS011;38041;40.058;18.328;2022-12-07T16:16:49;41.20;;;14.00;;
52025;SDS011;38041;40.058;18.328;2022-12-07T16:19:17;30.03;;;12.83;;
52025;SDS011;38041;40.058;18.328;2022-12-07T16:21:44;30.67;;;13.33;;
52025;SDS011;38041;40.058;18.328;2022-12-07T16:24:12;26.87;;;12.70;;
52025;SDS011;38041;40.058;18.328;2022-12-07T16:26:42;39.20;;;12.70;;
52025;SDS011;38041;40.058;18.328;2022-12-07T16:29:13;35.03;;;14.73;;
52025;SDS011;38041;40.058;18.328;2022-12-07T16:31:41;41.03;;;17.50;;
52025;SDS011;38041;40.058;18.328;2022-12-07T16:34:09;47.53;;;18.73;;
52025;SDS011;38041;40.058;18.328;2022-12-07T16:36:37;48.57;;;18.97;;
52025;SDS011;38041;40.058;18.328;2022-12-07T16:39:25;40.17;;;17.63;;
52025;SDS011;38041;40.058;18.328;2022-12-07T16:41:53;36.17;;;16.43;;
52025;SDS011;38041;40.058;18.328;2022-12-07T16:44:21;40.73;;;18.20;;
52025;SDS011;38041;40.058;18.328;2022-12-07T16:46:48;36.60;;;19.53;;
52025;SDS011;38041;40.058;18.328;2022-12-07T16:49:16;33.33;;;16.53;;